createdAt,value
2018-06-05T00:01:58.483Z,97349.48
2018-06-05T00:04:27.180Z,97341.09
2018-06-05T00:06:56.047Z,97355.37
2018-06-05T00:09:24.638Z,97346.44
2018-06-05T00:11:53.270Z,97352.09
2018-06-05T00:14:21.832Z,97356.05
2018-06-05T00:16:50.548Z,97351.28
2018-06-05T00:19:19.305Z,97357.44
2018-06-05T00:21:47.838Z,97354.64
2018-06-05T00:24:16.538Z,97361.22
2018-06-05T00:26:45.917Z,97360.33
2018-06-05T00:29:14.464Z,97356.44
2018-06-05T00:31:43.322Z,97360.94
2018-06-05T00:34:12.108Z,97358.65
2018-06-05T00:36:40.671Z,97355.69
2018-06-05T00:39:09.267Z,97352.66
2018-06-05T00:41:37.885Z,97349.48
2018-06-05T00:44:06.604Z,97356.43
2018-06-05T00:46:35.182Z,97361.24
2018-06-05T00:49:03.942Z,97359.13
2018-06-05T00:51:43.573Z,97358.36
2018-06-05T00:54:13.311Z,97358.42
2018-06-05T00:56:42.527Z,97353.14
2018-06-05T00:59:11.728Z,97358.47
2018-06-05T01:01:40.566Z,97364.05
2018-06-05T01:04:09.338Z,97372.80
2018-06-05T01:06:38.263Z,97363.97
2018-06-05T01:09:08.478Z,97371.33
2018-06-05T01:11:37.789Z,97375.03
2018-06-05T01:14:06.628Z,97376.16
2018-06-05T01:16:35.326Z,97376.07
2018-06-05T01:19:03.992Z,97375.91
2018-06-05T01:21:32.650Z,97378.20
2018-06-05T01:24:02.144Z,97377.20
2018-06-05T01:26:31.063Z,97374.80
2018-06-05T01:29:00.442Z,97377.08
2018-06-05T01:31:29.032Z,97372.64
2018-06-05T01:33:57.758Z,97368.06
2018-06-05T01:36:26.325Z,97374.23
2018-06-05T01:38:55.336Z,97372.42
2018-06-05T01:41:23.957Z,97375.59
2018-06-05T01:43:52.659Z,97381.08
2018-06-05T01:46:21.552Z,97380.52
2018-06-05T01:48:50.085Z,97384.45
2018-06-05T01:51:19.582Z,97384.34
2018-06-05T01:53:48.253Z,97385.38
2018-06-05T01:56:16.918Z,97390.86
2018-06-05T01:58:45.640Z,97383.48
2018-06-05T02:01:14.399Z,97378.98
2018-06-05T02:03:43.541Z,97386.49
2018-06-05T02:06:12.219Z,97385.48
2018-06-05T02:08:41.033Z,97385.48
2018-06-05T02:11:09.635Z,97382.75
2018-06-05T02:13:39.658Z,97373.38
2018-06-05T02:16:11.459Z,97381.09
2018-06-05T02:18:42.045Z,97380.27
2018-06-05T02:21:11.747Z,97379.36
2018-06-05T02:23:42.997Z,97387.77
2018-06-05T02:26:12.385Z,97386.77
2018-06-05T02:28:41.203Z,97386.98
2018-06-05T02:31:09.824Z,97395.74
2018-06-05T02:33:38.421Z,97396.64
2018-06-05T02:36:07.050Z,97394.96
2018-06-05T02:38:35.724Z,97393.49
2018-06-05T02:41:04.353Z,97395.09
2018-06-05T02:43:33.059Z,97397.13
2018-06-05T02:46:01.974Z,97396.02
2018-06-05T02:48:30.530Z,97398.84
2018-06-05T02:50:59.143Z,97402.59
2018-06-05T02:53:27.773Z,97403.94
2018-06-05T02:55:56.459Z,97403.59
2018-06-05T02:58:24.980Z,97404.19
2018-06-05T03:00:53.678Z,97401.69
2018-06-05T03:03:22.428Z,97411.42
2018-06-05T03:05:51.390Z,97408.50
2018-06-05T03:08:20.025Z,97413.38
2018-06-05T03:10:48.679Z,97414.27
2018-06-05T03:13:17.576Z,97421.62
2018-06-05T03:15:47.036Z,97419.83
2018-06-05T03:18:15.694Z,97420.60
2018-06-05T03:20:44.520Z,97423.56
2018-06-05T03:23:13.154Z,97433.41
2018-06-05T03:25:42.010Z,97430.94
2018-06-05T03:28:10.651Z,97433.14
2018-06-05T03:30:39.529Z,97431.91
2018-06-05T03:33:08.044Z,97434.00
2018-06-05T03:35:36.648Z,97436.82
2018-06-05T03:38:05.363Z,97439.06
2018-06-05T03:40:34.574Z,97437.49
2018-06-05T03:43:03.876Z,97440.21
2018-06-05T03:45:32.569Z,97431.84
2018-06-05T03:48:01.168Z,97442.72
2018-06-05T03:50:29.765Z,97435.41
2018-06-05T03:52:58.489Z,97441.75
2018-06-05T03:55:27.766Z,97445.97
2018-06-05T03:57:56.400Z,97454.30
2018-06-05T04:00:25.002Z,97444.77
2018-06-05T04:02:53.499Z,97448.30
2018-06-05T04:05:22.419Z,97444.55
2018-06-05T04:07:51.694Z,97442.96
2018-06-05T04:10:20.410Z,97450.88
2018-06-05T04:12:49.078Z,97451.70
2018-06-05T04:15:17.669Z,97449.42
2018-06-05T04:17:46.230Z,97453.04
2018-06-05T04:20:14.863Z,97440.55
2018-06-05T04:22:43.488Z,97453.37
2018-06-05T04:25:12.621Z,97450.44
2018-06-05T04:27:41.216Z,97450.41
2018-06-05T04:30:10.054Z,97455.59
2018-06-05T04:32:38.906Z,97453.52
2018-06-05T04:35:08.571Z,97459.06
2018-06-05T04:37:37.220Z,97458.92
2018-06-05T04:40:05.850Z,97461.50
2018-06-05T04:42:34.411Z,97464.34
2018-06-05T04:45:03.081Z,97465.36
2018-06-05T04:47:31.951Z,97461.83
2018-06-05T04:50:00.616Z,97474.78
2018-06-05T04:52:29.271Z,97471.55
2018-06-05T04:54:57.819Z,97470.95
2018-06-05T04:57:26.649Z,97474.73
2018-06-05T04:59:55.974Z,97476.14
2018-06-05T05:02:24.693Z,97479.67
2018-06-05T05:04:53.305Z,97482.09
2018-06-05T05:07:21.870Z,97474.44
2018-06-05T05:09:51.556Z,97478.41
2018-06-05T05:12:20.100Z,97476.18
2018-06-05T05:14:48.791Z,97477.56
2018-06-05T05:17:17.634Z,97476.66
2018-06-05T05:19:46.084Z,97475.62
2018-06-05T05:22:14.939Z,97489.19
2018-06-05T05:24:44.350Z,97479.06
2018-06-05T05:27:13.014Z,97482.77
2018-06-05T05:29:42.618Z,97486.47
2018-06-05T05:32:11.451Z,97490.91
2018-06-05T05:37:07.454Z,97499.45
2018-06-05T05:39:36.091Z,97495.65
2018-06-05T05:42:04.821Z,97500.87
2018-06-05T05:44:33.567Z,97492.55
2018-06-05T05:47:02.295Z,97495.70
2018-06-05T05:49:30.974Z,97494.33
2018-06-05T05:51:59.788Z,97498.73
2018-06-05T05:54:28.445Z,97505.92
2018-06-05T05:56:57.255Z,97503.79
2018-06-05T05:59:25.862Z,97498.70
2018-06-05T06:01:54.660Z,97490.80
2018-06-05T06:04:23.625Z,97491.09
2018-06-05T06:06:52.412Z,97491.78
2018-06-05T06:09:21.354Z,97499.28
2018-06-05T06:11:50.736Z,97495.27
2018-06-05T06:14:19.824Z,97496.16
2018-06-05T06:16:48.430Z,97491.19
2018-06-05T06:19:17.290Z,97499.73
2018-06-05T06:21:45.964Z,97501.30
2018-06-05T06:24:14.820Z,97500.66
2018-06-05T06:26:43.681Z,97503.81
2018-06-05T06:29:12.317Z,97503.30
2018-06-05T06:31:40.908Z,97503.18
2018-06-05T06:34:09.490Z,97503.60
2018-06-05T06:36:38.252Z,97510.95
2018-06-05T06:39:10.246Z,97502.55
2018-06-05T06:41:39.310Z,97502.44
2018-06-05T06:44:07.998Z,97507.73
2018-06-05T06:46:36.796Z,97502.12
2018-06-05T06:49:06.130Z,97505.27
2018-06-05T06:51:34.776Z,97509.89
2018-06-05T06:54:02.610Z,97504.42
2018-06-05T06:56:31.901Z,97506.80
2018-06-05T06:59:00.582Z,97503.14
2018-06-05T07:01:29.347Z,97507.80
2018-06-05T07:03:58.037Z,97505.11
2018-06-05T07:06:25.917Z,97512.73
2018-06-05T07:08:54.890Z,97511.19
2018-06-05T07:11:23.778Z,97503.37
2018-06-05T07:13:51.575Z,97503.68
2018-06-05T07:16:19.340Z,97507.28
2018-06-05T07:18:47.077Z,97505.64
2018-06-05T07:21:16.022Z,97500.55
2018-06-05T07:23:44.646Z,97503.67
2018-06-05T07:26:13.537Z,97507.21
2018-06-05T07:28:42.800Z,97504.33
2018-06-05T07:31:11.812Z,97501.98
2018-06-05T07:33:40.507Z,97501.95
2018-06-05T07:36:09.250Z,97497.80
2018-06-05T07:38:37.976Z,97501.26
2018-06-05T07:41:07.103Z,97501.87
2018-06-05T07:43:35.839Z,97494.98
2018-06-05T07:46:05.148Z,97492.93
2018-06-05T07:48:34.848Z,97492.92
2018-06-05T07:51:03.557Z,97489.98
2018-06-05T07:53:32.276Z,97500.48
2018-06-05T07:56:01.223Z,97486.70
2018-06-05T07:58:29.757Z,97493.09
2018-06-05T08:00:58.753Z,97492.56
2018-06-05T08:03:27.527Z,97493.09
2018-06-05T08:05:56.071Z,97489.62
2018-06-05T08:08:24.668Z,97491.58
2018-06-05T08:10:53.618Z,97497.40
2018-06-05T08:13:22.326Z,97492.02
2018-06-05T08:15:51.357Z,97492.27
2018-06-05T08:18:20.019Z,97496.44
2018-06-05T08:20:48.717Z,97492.09
2018-06-05T08:23:17.514Z,97490.44
2018-06-05T08:25:46.801Z,97492.89
2018-06-05T08:28:15.399Z,97496.44
2018-06-05T08:30:44.236Z,97490.55
2018-06-05T08:33:13.692Z,97489.53
2018-06-05T08:35:42.351Z,97499.30
2018-06-05T08:38:10.936Z,97487.16
2018-06-05T08:40:39.708Z,97493.69
2018-06-05T08:43:08.400Z,97494.55
2018-06-05T08:45:37.076Z,97497.31
2018-06-05T08:48:05.897Z,97502.09
2018-06-05T08:50:34.598Z,97492.13
2018-06-05T08:53:03.433Z,97493.20
2018-06-05T08:55:31.938Z,97494.84
2018-06-05T08:58:00.448Z,97492.24
2018-06-05T09:00:29.302Z,97486.59
2018-06-05T09:02:57.913Z,97498.02
2018-06-05T09:05:26.920Z,97494.61
2018-06-05T09:07:55.771Z,97485.11
2018-06-05T09:10:24.497Z,97493.62
2018-06-05T09:12:53.271Z,97497.69
2018-06-05T09:15:21.869Z,97496.67
2018-06-05T09:17:51.201Z,97494.66
2018-06-05T09:20:19.878Z,97490.94
2018-06-05T09:22:48.617Z,97485.77
2018-06-05T09:25:17.989Z,97491.98
2018-06-05T09:27:46.919Z,97489.47
2018-06-05T09:30:15.749Z,97484.92
2018-06-05T09:32:44.516Z,97487.64
2018-06-05T09:35:13.248Z,97480.48
2018-06-05T09:37:42.652Z,97482.54
2018-06-05T09:40:11.344Z,97491.52
2018-06-05T09:42:40.323Z,97480.27
2018-06-05T09:45:09.527Z,97481.36
2018-06-05T09:47:38.882Z,97485.23
2018-06-05T09:50:07.594Z,97485.59
2018-06-05T09:52:36.207Z,97480.53
2018-06-05T09:55:05.489Z,97482.88
2018-06-05T09:57:34.103Z,97481.21
2018-06-05T10:00:02.896Z,97482.89
2018-06-05T10:02:31.643Z,97474.84
2018-06-05T10:05:00.277Z,97476.25
2018-06-05T10:07:29.650Z,97474.00
2018-06-05T10:09:58.273Z,97473.30
2018-06-05T10:12:27.092Z,97470.93
2018-06-05T10:14:55.611Z,97467.85
2018-06-05T10:17:24.627Z,97463.42
2018-06-05T10:19:53.454Z,97465.05
2018-06-05T10:22:22.251Z,97467.58
2018-06-05T10:24:51.174Z,97468.91
2018-06-05T10:27:20.167Z,97464.80
2018-06-05T10:29:49.851Z,97465.34
2018-06-05T10:32:18.614Z,97457.97
2018-06-05T10:34:47.279Z,97455.56
2018-06-05T10:37:15.904Z,97455.92
2018-06-05T10:39:44.669Z,97460.50
2018-06-05T10:42:13.978Z,97448.46
2018-06-05T10:44:42.607Z,97450.75
2018-06-05T10:47:11.326Z,97454.88
2018-06-05T10:49:40.173Z,97453.52
2018-06-05T10:52:09.923Z,97447.66
2018-06-05T10:54:38.956Z,97442.66
2018-06-05T10:57:07.583Z,97448.88
2018-06-05T10:59:36.328Z,97442.20
2018-06-05T11:02:05.327Z,97434.27
2018-06-05T11:04:33.994Z,97430.34
2018-06-05T11:07:03.012Z,97426.03
2018-06-05T11:09:31.917Z,97420.27
2018-06-05T11:12:00.777Z,97419.60
2018-06-05T11:14:29.466Z,97418.34
2018-06-05T11:16:58.181Z,97410.02
2018-06-05T11:19:27.134Z,97407.78
2018-06-05T11:21:56.432Z,97407.41
2018-06-05T11:24:25.200Z,97404.53
2018-06-05T11:26:54.035Z,97406.69
2018-06-05T11:29:22.829Z,97396.89
2018-06-05T11:31:51.699Z,97402.34
2018-06-05T11:34:20.839Z,97396.24
2018-06-05T11:36:50.086Z,97389.59
2018-06-05T11:39:18.870Z,97392.53
2018-06-05T11:41:47.487Z,97389.72
2018-06-05T11:44:16.241Z,97389.33
2018-06-05T11:46:44.975Z,97387.17
2018-06-05T11:49:13.644Z,97387.64
2018-06-05T11:51:43.498Z,97379.62
2018-06-05T11:54:12.485Z,97376.22
2018-06-05T11:56:41.003Z,97376.73
2018-06-05T11:59:09.838Z,97371.42
2018-06-05T12:01:38.392Z,97365.21
2018-06-05T12:04:07.024Z,97367.53
2018-06-05T12:06:35.727Z,97363.44
2018-06-05T12:09:07.034Z,97364.13
2018-06-05T12:11:35.594Z,97365.69
2018-06-05T12:14:04.266Z,97363.38
2018-06-05T12:16:33.590Z,97354.80
2018-06-05T12:19:02.424Z,97353.56
2018-06-05T12:21:31.068Z,97357.15
2018-06-05T12:23:59.708Z,97353.70
2018-06-05T12:26:28.488Z,97357.06
2018-06-05T12:28:57.062Z,97361.94
2018-06-05T12:31:26.843Z,97353.77
2018-06-05T12:33:55.358Z,97355.95
2018-06-05T12:36:23.967Z,97354.58
2018-06-05T12:38:52.612Z,97346.11
2018-06-05T12:41:21.483Z,97341.26
2018-06-05T12:43:50.324Z,97341.37
2018-06-05T12:46:19.234Z,97337.34
2018-06-05T12:48:48.127Z,97331.52
2018-06-05T12:51:16.837Z,97331.78
2018-06-05T12:53:45.587Z,97337.84
2018-06-05T12:56:14.333Z,97336.34
2018-06-05T12:58:43.161Z,97331.98
2018-06-05T13:01:11.787Z,97334.91
2018-06-05T13:03:40.944Z,97328.61
2018-06-05T13:06:09.637Z,97327.77
2018-06-05T13:08:38.358Z,97321.25
2018-06-05T13:11:07.018Z,97322.92
2018-06-05T13:13:35.846Z,97318.47
2018-06-05T13:16:05.147Z,97322.30
2018-06-05T13:18:33.903Z,97327.77
2018-06-05T13:21:02.566Z,97322.02
2018-06-05T13:23:31.084Z,97330.94
2018-06-05T13:26:01.121Z,97329.27
2018-06-05T13:28:29.835Z,97321.16
2018-06-05T13:30:58.565Z,97317.42
2018-06-05T13:33:27.202Z,97316.65
2018-06-05T13:35:55.890Z,97314.11
2018-06-05T13:38:25.397Z,97312.72
2018-06-05T13:40:53.973Z,97318.84
2018-06-05T13:43:23.472Z,97320.29
2018-06-05T13:45:52.083Z,97308.98
2018-06-05T13:48:21.092Z,97308.27
2018-06-05T13:50:49.792Z,97300.33
2018-06-05T13:53:18.443Z,97305.10
2018-06-05T13:55:47.281Z,97305.50
2018-06-05T13:58:16.029Z,97305.70
2018-06-05T14:00:45.324Z,97300.27
2018-06-05T14:03:13.857Z,97301.27
2018-06-05T14:05:42.584Z,97296.92
2018-06-05T14:08:11.514Z,97294.75
2018-06-05T14:10:40.430Z,97286.34
2018-06-05T14:13:09.040Z,97278.29
2018-06-05T14:15:37.720Z,97286.53
2018-06-05T14:18:06.734Z,97283.59
2018-06-05T14:20:35.983Z,97288.23
2018-06-05T14:23:05.059Z,97286.36
2018-06-05T14:25:33.855Z,97281.98
2018-06-05T14:28:02.665Z,97281.61
2018-06-05T14:30:31.582Z,97277.31
2018-06-05T14:33:00.483Z,97286.12
2018-06-05T14:35:29.232Z,97289.64
2018-06-05T14:37:57.837Z,97292.62
2018-06-05T14:40:26.794Z,97281.55
2018-06-05T14:42:55.635Z,97281.67
2018-06-05T14:45:24.449Z,97273.86
2018-06-05T14:47:53.070Z,97270.45
2018-06-05T14:50:21.841Z,97276.84
2018-06-05T14:52:50.760Z,97274.58
2018-06-05T14:55:19.520Z,97277.12
2018-06-05T14:57:48.040Z,97268.27
2018-06-05T15:00:16.736Z,97264.59
2018-06-05T15:02:45.491Z,97268.97
2018-06-05T15:05:14.400Z,97279.09
2018-06-05T15:07:43.373Z,97265.56
2018-06-05T15:10:12.301Z,97266.39
2018-06-05T15:12:41.140Z,97268.41
2018-06-05T15:15:10.069Z,97262.56
2018-06-05T15:17:38.750Z,97252.59
2018-06-05T15:20:07.524Z,97259.21
2018-06-05T15:22:36.356Z,97252.62
2018-06-05T15:25:05.028Z,97259.63
2018-06-05T15:27:33.851Z,97259.27
2018-06-05T15:30:02.545Z,97268.45
2018-06-05T15:32:31.479Z,97268.97
2018-06-05T15:35:00.162Z,97262.78
2018-06-05T15:37:28.924Z,97270.50
2018-06-05T15:39:57.604Z,97274.68
2018-06-05T15:42:26.256Z,97270.84
2018-06-05T15:44:55.189Z,97275.91
2018-06-05T15:47:24.084Z,97270.66
2018-06-05T15:49:52.785Z,97273.47
2018-06-05T15:52:21.488Z,97276.92
2018-06-05T15:54:50.979Z,97280.44
2018-06-05T15:57:19.830Z,97276.15
2018-06-05T15:59:48.465Z,97277.82
2018-06-05T16:02:17.430Z,97275.81
2018-06-05T16:04:46.125Z,97281.84
2018-06-05T16:07:14.750Z,97272.59
2018-06-05T16:09:43.459Z,97273.66
2018-06-05T16:12:12.168Z,97276.86
2018-06-05T16:14:40.761Z,97268.44
2018-06-05T16:17:09.520Z,97273.45
2018-06-05T16:19:38.198Z,97267.12
2018-06-05T16:22:06.830Z,97271.63
2018-06-05T16:24:35.904Z,97261.91
2018-06-05T16:27:04.805Z,97266.36
2018-06-05T16:29:34.164Z,97268.64
2018-06-05T16:32:02.757Z,97266.88
2018-06-05T16:34:31.579Z,97266.27
2018-06-05T16:37:01.184Z,97269.11
2018-06-05T16:39:29.864Z,97262.33
2018-06-05T16:41:58.739Z,97266.45
2018-06-05T16:44:27.413Z,97264.37
2018-06-05T16:46:56.155Z,97266.80
2018-06-05T16:49:25.000Z,97267.45
2018-06-05T16:51:53.666Z,97265.07
2018-06-05T16:54:22.559Z,97268.72
2018-06-05T16:56:51.696Z,97267.67
2018-06-05T16:59:20.374Z,97268.00
2018-06-05T17:01:48.985Z,97270.27
2018-06-05T17:04:17.944Z,97271.33
2018-06-05T17:06:46.526Z,97273.50
2018-06-05T17:09:15.350Z,97266.49
2018-06-05T17:11:44.206Z,97268.61
2018-06-05T17:14:12.984Z,97269.41
2018-06-05T17:16:41.760Z,97264.30
2018-06-05T17:20:13.554Z,97269.89
2018-06-05T17:22:42.295Z,97262.00
2018-06-05T17:25:11.259Z,97260.70
2018-06-05T17:27:39.985Z,97255.37
2018-06-05T17:30:09.075Z,97261.09
2018-06-05T17:32:37.984Z,97258.31
2018-06-05T17:35:06.701Z,97260.45
2018-06-05T17:37:35.630Z,97261.69
2018-06-05T17:40:05.109Z,97256.38
2018-06-05T17:42:33.871Z,97262.42
2018-06-05T17:45:03.474Z,97263.63
2018-06-05T17:47:32.051Z,97263.71
2018-06-05T17:50:00.675Z,97265.36
2018-06-05T17:52:29.320Z,97268.12
2018-06-05T17:54:57.955Z,97268.20
2018-06-05T17:57:26.579Z,97270.44
2018-06-05T17:59:55.291Z,97268.39
2018-06-05T18:02:24.010Z,97273.19
2018-06-05T18:04:52.651Z,97279.01
2018-06-05T18:07:21.546Z,97276.36
2018-06-05T18:09:50.336Z,97278.37
2018-06-05T18:12:19.210Z,97279.64
2018-06-05T18:14:48.206Z,97278.63
2018-06-05T18:17:17.387Z,97281.11
2018-06-05T18:19:46.914Z,97278.48
2018-06-05T18:22:15.554Z,97288.22
2018-06-05T18:24:44.401Z,97292.12
2018-06-05T18:27:13.351Z,97294.27
2018-06-05T18:29:42.737Z,97291.26
2018-06-05T18:32:11.570Z,97295.54
2018-06-05T18:34:40.542Z,97300.45
2018-06-05T18:37:09.440Z,97300.12
2018-06-05T18:39:39.265Z,97304.88
2018-06-05T18:42:08.129Z,97297.91
2018-06-05T18:44:36.951Z,97300.39
2018-06-05T18:47:05.870Z,97300.55
2018-06-05T18:49:34.621Z,97305.36
2018-06-05T18:52:03.426Z,97302.42
2018-06-05T18:54:32.095Z,97308.42
2018-06-05T18:57:00.786Z,97308.23
2018-06-05T18:59:29.575Z,97315.95
2018-06-05T19:01:58.244Z,97311.40
2018-06-05T19:04:27.286Z,97318.89
2018-06-05T19:06:56.123Z,97320.80
2018-06-05T19:09:24.999Z,97322.08
2018-06-05T19:11:54.132Z,97334.19
2018-06-05T19:14:22.135Z,97333.48
2018-06-05T19:16:51.484Z,97336.96
2018-06-05T19:19:19.460Z,97344.14
2018-06-05T19:21:47.339Z,97352.75
2018-06-05T19:24:16.204Z,97363.05
2018-06-05T19:26:45.633Z,97365.24
2018-06-05T19:29:14.511Z,97372.94
2018-06-05T19:31:42.436Z,97381.16
2018-06-05T19:34:10.389Z,97381.89
2018-06-05T19:36:39.699Z,97384.88
2018-06-05T19:39:08.727Z,97392.44
2018-06-05T19:41:37.377Z,97395.45
2018-06-05T19:44:05.680Z,97398.50
2018-06-05T19:46:35.357Z,97407.55
2018-06-05T19:49:03.217Z,97403.62
2018-06-05T19:51:31.383Z,97414.67
2018-06-05T19:53:59.996Z,97418.66
2018-06-05T19:59:09.066Z,97432.13
2018-06-05T20:01:37.960Z,97426.38
2018-06-05T20:04:06.139Z,97430.42
2018-06-05T20:06:34.300Z,97426.48
2018-06-05T20:09:02.335Z,97436.95
2018-06-05T20:11:30.085Z,97436.84
2018-06-05T20:13:58.187Z,97429.56
2018-06-05T20:16:26.079Z,97439.43
2018-06-05T20:18:53.965Z,97437.82
2018-06-05T20:21:21.873Z,97434.07
2018-06-05T20:23:49.725Z,97438.17
2018-06-05T20:26:17.646Z,97437.42
2018-06-05T20:28:45.706Z,97434.42
2018-06-05T20:31:13.773Z,97440.06
2018-06-05T20:33:41.674Z,97437.61
2018-06-05T20:36:09.521Z,97446.91
2018-06-05T20:39:52.496Z,97446.68
2018-06-05T20:42:20.405Z,97447.39
2018-06-05T20:44:48.236Z,97442.05
2018-06-05T20:47:16.254Z,97444.22
2018-06-05T20:49:44.047Z,97440.72
2018-06-05T20:52:11.932Z,97444.97
2018-06-05T20:54:40.334Z,97444.84
2018-06-05T20:57:08.541Z,97445.45
2018-06-05T20:59:36.711Z,97447.77
2018-06-05T21:02:04.618Z,97452.59
2018-06-05T21:04:32.942Z,97455.16
2018-06-05T21:07:00.810Z,97459.30
2018-06-05T21:09:30.731Z,97457.13
2018-06-05T21:11:58.695Z,97456.20
2018-06-05T21:14:26.531Z,97457.01
2018-06-05T21:16:54.450Z,97460.86
2018-06-05T21:19:22.607Z,97463.09
2018-06-05T21:21:50.459Z,97463.96
2018-06-05T21:24:18.282Z,97458.20
2018-06-05T21:26:46.035Z,97460.85
2018-06-05T21:29:13.912Z,97456.70
2018-06-05T21:31:41.741Z,97453.31
2018-06-05T21:34:09.624Z,97458.64
2018-06-05T21:36:37.706Z,97459.17
2018-06-05T21:39:07.409Z,97459.06
2018-06-05T21:41:35.332Z,97462.11
2018-06-05T21:44:03.142Z,97456.61
2018-06-05T21:46:31.642Z,97455.55
2018-06-05T21:48:59.554Z,97461.03
2018-06-05T21:51:27.314Z,97451.78
2018-06-05T21:53:55.264Z,97457.52
2018-06-05T21:56:23.465Z,97459.45
2018-06-05T21:58:51.376Z,97450.44
2018-06-05T22:01:19.192Z,97453.09
2018-06-05T22:03:46.976Z,97450.73
2018-06-05T22:06:14.685Z,97450.13
2018-06-05T22:08:42.522Z,97443.00
2018-06-05T22:11:11.217Z,97449.98
2018-06-05T22:13:38.977Z,97442.44
2018-06-05T22:16:07.482Z,97450.88
2018-06-05T22:18:35.446Z,97452.30
2018-06-05T22:21:03.152Z,97452.16
2018-06-05T22:23:30.995Z,97462.11
2018-06-05T22:25:58.806Z,97460.31
2018-06-05T22:28:26.750Z,97458.95
2018-06-05T22:30:54.520Z,97457.16
2018-06-05T22:33:22.372Z,97457.16
2018-06-05T22:35:50.141Z,97458.89
2018-06-05T22:38:25.237Z,97459.80
2018-06-05T22:40:52.970Z,97461.25
2018-06-05T22:43:20.841Z,97453.90
2018-06-05T22:45:48.646Z,97457.89
2018-06-05T22:48:16.603Z,97458.38
2018-06-05T22:50:44.327Z,97460.20
2018-06-05T22:53:12.144Z,97462.41
2018-06-05T22:55:39.859Z,97462.78
2018-06-05T22:58:07.650Z,97469.74
2018-06-05T23:00:35.363Z,97470.00
2018-06-05T23:03:03.174Z,97468.91
2018-06-05T23:05:31.635Z,97459.63
2018-06-05T23:07:59.600Z,97464.16
2018-06-05T23:10:27.499Z,97467.27
2018-06-05T23:12:55.273Z,97461.01
2018-06-05T23:15:23.131Z,97465.41
2018-06-05T23:17:50.836Z,97465.72
2018-06-05T23:20:19.027Z,97461.12
2018-06-05T23:22:46.855Z,97464.28
2018-06-05T23:25:14.841Z,97462.48
2018-06-05T23:27:42.746Z,97468.78
2018-06-05T23:30:10.941Z,97466.58
2018-06-05T23:32:39.092Z,97463.98
2018-06-05T23:35:07.028Z,97463.34
2018-06-05T23:37:35.006Z,97469.67
2018-06-05T23:40:02.986Z,97462.28
2018-06-05T23:42:30.797Z,97459.41
2018-06-05T23:44:58.553Z,97461.14
2018-06-05T23:47:26.413Z,97453.17
2018-06-05T23:49:54.207Z,97454.54
2018-06-05T23:52:22.183Z,97461.30
2018-06-05T23:54:50.195Z,97461.23
2018-06-05T23:57:18.646Z,97464.52
2018-06-05T23:59:46.496Z,97455.35
